createdAt,value
2023-01-31T00:02:08.695Z,74.02
2023-01-31T00:05:11.299Z,73.89
2023-01-31T00:08:15.432Z,74.89
2023-01-31T00:11:20.769Z,74.60
2023-01-31T00:14:25.038Z,76.12
2023-01-31T00:17:27.492Z,77.63
2023-01-31T00:20:30.076Z,79.49
2023-01-31T00:23:32.611Z,79.29
2023-01-31T00:26:36.565Z,79.35
2023-01-31T00:29:39.658Z,79.20
2023-01-31T00:32:42.056Z,77.93
2023-01-31T00:35:44.441Z,78.05
2023-01-31T00:38:50.043Z,77.03
2023-01-31T00:41:53.474Z,76.26
2023-01-31T00:44:56.764Z,76.10
2023-01-31T00:48:00.142Z,75.82
2023-01-31T00:51:02.617Z,74.39
2023-01-31T00:54:05.309Z,74.05
2023-01-31T00:57:07.714Z,73.23
2023-01-31T01:00:11.148Z,73.19
2023-01-31T01:03:14.873Z,72.66
2023-01-31T01:06:17.630Z,71.99
2023-01-31T01:09:20.213Z,72.05
2023-01-31T01:12:23.434Z,71.10
2023-01-31T01:15:26.188Z,70.69
2023-01-31T01:18:28.559Z,71.19
2023-01-31T01:21:32.406Z,71.21
2023-01-31T01:24:36.349Z,70.60
2023-01-31T01:27:38.775Z,70.12
2023-01-31T01:30:41.768Z,70.20
2023-01-31T01:33:45.850Z,70.06
2023-01-31T01:36:48.349Z,70.05
2023-01-31T01:39:52.628Z,70.26
2023-01-31T01:42:55.830Z,70.07
2023-01-31T01:45:58.490Z,70.33
2023-01-31T01:49:18.502Z,70.24
2023-01-31T01:52:21.781Z,70.41
2023-01-31T01:55:30.986Z,71.37
2023-01-31T01:58:43.099Z,71.64
2023-01-31T02:01:47.748Z,71.70
2023-01-31T02:04:52.343Z,71.60
2023-01-31T02:07:56.222Z,71.30
2023-01-31T02:11:04.488Z,70.90
2023-01-31T02:14:11.510Z,70.97
2023-01-31T02:17:15.987Z,71.10
2023-01-31T02:20:24.034Z,71.71
2023-01-31T02:23:38.546Z,71.88
2023-01-31T02:27:02.903Z,72.33
2023-01-31T02:30:31.531Z,72.73
2023-01-31T02:34:03.580Z,73.09
2023-01-31T02:37:13.801Z,72.49
2023-01-31T02:41:01.734Z,72.42
2023-01-31T02:44:47.434Z,72.00
2023-01-31T02:48:34.233Z,72.22
2023-01-31T02:52:05.930Z,71.94
2023-01-31T02:55:33.156Z,71.48
2023-01-31T02:58:38.080Z,71.51
2023-01-31T03:01:47.381Z,71.65
2023-01-31T03:04:50.645Z,70.75
2023-01-31T03:07:56.041Z,71.24
2023-01-31T03:11:04.187Z,70.02
2023-01-31T03:14:16.878Z,69.69
2023-01-31T03:18:04.619Z,69.77
2023-01-31T03:21:14.403Z,70.04
2023-01-31T03:24:19.204Z,69.60
2023-01-31T03:27:22.872Z,69.11
2023-01-31T03:30:37.830Z,69.38
2023-01-31T03:33:46.089Z,68.89
2023-01-31T03:37:07.490Z,69.73
2023-01-31T03:40:40.960Z,69.43
2023-01-31T03:43:58.759Z,69.07
2023-01-31T03:47:11.354Z,68.94
2023-01-31T03:50:21.281Z,69.29
2023-01-31T03:53:41.472Z,68.54
2023-01-31T03:57:02.707Z,69.13
2023-01-31T04:00:09.382Z,69.39
2023-01-31T04:03:20.225Z,69.53
2023-01-31T04:06:23.136Z,69.26
2023-01-31T04:09:26.744Z,69.73
2023-01-31T04:12:29.278Z,69.88
2023-01-31T04:15:32.193Z,69.27
2023-01-31T04:18:37.458Z,69.71
2023-01-31T04:21:41.254Z,69.60
2023-01-31T04:24:43.746Z,69.22
2023-01-31T04:27:46.225Z,69.23
2023-01-31T04:30:56.386Z,70.13
2023-01-31T04:34:00.108Z,69.89
2023-01-31T04:37:02.582Z,69.81
2023-01-31T04:40:05.988Z,69.77
2023-01-31T04:43:08.468Z,70.51
2023-01-31T04:46:10.954Z,71.46
2023-01-31T04:49:14.517Z,71.63
2023-01-31T04:52:16.949Z,72.36
2023-01-31T04:55:19.940Z,72.36
2023-01-31T04:58:23.472Z,72.24
2023-01-31T05:01:26.737Z,72.31
2023-01-31T05:04:29.121Z,72.75
2023-01-31T05:07:31.658Z,72.87
2023-01-31T05:10:35.093Z,73.00
2023-01-31T05:13:40.820Z,73.29
2023-01-31T05:16:47.407Z,73.82
2023-01-31T05:19:50.196Z,74.39
2023-01-31T05:22:52.608Z,76.28
2023-01-31T05:25:55.174Z,77.90
2023-01-31T05:28:58.066Z,79.67
2023-01-31T05:32:03.392Z,79.57
2023-01-31T05:35:06.579Z,80.08
2023-01-31T05:38:10.045Z,80.76
2023-01-31T05:41:12.685Z,79.95
2023-01-31T05:44:16.415Z,78.90
2023-01-31T05:47:18.817Z,78.56
2023-01-31T05:50:21.858Z,77.61
2023-01-31T05:53:25.683Z,76.12
2023-01-31T05:56:28.631Z,75.62
2023-01-31T05:59:33.617Z,74.21
2023-01-31T06:02:36.117Z,73.34
2023-01-31T06:05:40.730Z,74.07
2023-01-31T06:08:43.538Z,73.53
2023-01-31T06:11:46.800Z,72.99
2023-01-31T06:14:49.428Z,72.30
2023-01-31T06:17:51.896Z,72.49
2023-01-31T06:20:54.476Z,71.85
2023-01-31T06:23:57.315Z,72.23
2023-01-31T06:27:00.112Z,71.73
2023-01-31T06:30:02.774Z,72.41
2023-01-31T06:33:05.521Z,72.17
2023-01-31T06:36:08.437Z,71.63
2023-01-31T06:39:13.149Z,71.65
2023-01-31T06:42:15.708Z,70.88
2023-01-31T06:45:18.539Z,70.73
2023-01-31T06:48:21.665Z,70.70
2023-01-31T06:51:24.051Z,70.69
2023-01-31T06:54:26.538Z,69.33
2023-01-31T06:57:29.040Z,69.63
2023-01-31T07:00:31.651Z,67.44
2023-01-31T07:03:34.218Z,66.52
2023-01-31T07:06:36.865Z,67.46
2023-01-31T07:09:39.278Z,67.22
2023-01-31T07:12:41.925Z,65.59
2023-01-31T07:15:44.351Z,66.81
2023-01-31T07:18:47.097Z,66.92
2023-01-31T07:21:50.169Z,66.87
2023-01-31T07:24:52.612Z,66.24
2023-01-31T07:27:55.039Z,65.96
2023-01-31T07:31:04.798Z,66.33
2023-01-31T07:34:07.595Z,66.07
2023-01-31T07:37:10.078Z,65.86
2023-01-31T07:40:15.087Z,66.17
2023-01-31T07:43:18.061Z,65.76
2023-01-31T07:46:20.628Z,65.21
2023-01-31T07:49:23.544Z,65.97
2023-01-31T07:52:26.742Z,64.72
2023-01-31T07:55:29.781Z,63.51
2023-01-31T07:58:34.748Z,63.38
2023-01-31T08:01:56.227Z,63.77
2023-01-31T08:04:58.980Z,62.22
2023-01-31T08:08:10.495Z,62.63
2023-01-31T08:11:13.386Z,62.04
2023-01-31T08:14:16.099Z,61.93
2023-01-31T08:17:18.674Z,62.47
2023-01-31T08:20:21.175Z,61.94
2023-01-31T08:23:23.762Z,61.90
2023-01-31T08:26:26.271Z,62.24
2023-01-31T08:29:29.506Z,62.03
2023-01-31T08:32:32.092Z,61.94
2023-01-31T08:35:34.561Z,61.74
2023-01-31T08:38:37.091Z,62.67
2023-01-31T08:41:39.648Z,61.33
2023-01-31T08:44:43.793Z,62.08
2023-01-31T08:47:46.672Z,60.49
2023-01-31T08:50:49.146Z,61.13
2023-01-31T08:53:51.781Z,61.21
2023-01-31T08:56:54.215Z,60.70
2023-01-31T08:59:56.718Z,59.50
2023-01-31T09:03:00.646Z,61.07
2023-01-31T09:06:06.846Z,60.58
2023-01-31T09:09:09.290Z,61.15
2023-01-31T09:12:11.753Z,61.02
2023-01-31T09:15:14.539Z,61.38
2023-01-31T09:18:16.913Z,61.92
2023-01-31T09:21:21.251Z,61.14
2023-01-31T09:24:23.856Z,60.76
2023-01-31T09:27:26.645Z,60.97
2023-01-31T09:30:29.744Z,59.21
2023-01-31T09:33:33.589Z,58.85
2023-01-31T09:36:36.770Z,59.92
2023-01-31T09:39:39.670Z,60.40
2023-01-31T09:42:45.282Z,58.84
2023-01-31T09:45:50.243Z,55.95
2023-01-31T09:48:57.478Z,53.11
2023-01-31T09:52:02.529Z,50.74
2023-01-31T09:55:08.191Z,48.92
2023-01-31T09:58:40.943Z,47.64
2023-01-31T10:01:58.151Z,47.19
2023-01-31T10:05:20.042Z,48.16
2023-01-31T10:08:46.702Z,46.13
2023-01-31T10:11:56.315Z,46.26
2023-01-31T10:15:03.474Z,45.71
2023-01-31T10:18:12.863Z,42.99
2023-01-31T10:21:20.218Z,42.13
2023-01-31T10:24:49.529Z,39.48
2023-01-31T10:27:57.671Z,43.34
2023-01-31T10:31:03.625Z,41.36
2023-01-31T10:34:19.846Z,42.71
2023-01-31T10:37:25.174Z,45.64
2023-01-31T10:40:33.826Z,44.48
2023-01-31T10:43:43.432Z,38.14
2023-01-31T10:46:47.789Z,35.38
2023-01-31T10:49:51.071Z,42.31
2023-01-31T10:53:13.687Z,46.68
2023-01-31T10:56:20.032Z,43.92
2023-01-31T10:59:29.535Z,46.72
2023-01-31T11:02:33.314Z,44.44
2023-01-31T11:05:41.377Z,47.80
2023-01-31T11:08:47.878Z,40.42
2023-01-31T11:12:00.529Z,35.39
2023-01-31T11:15:16.890Z,33.28
2023-01-31T11:18:30.150Z,31.27
2023-01-31T11:21:35.512Z,32.35
2023-01-31T11:24:41.354Z,29.58
2023-01-31T11:27:44.367Z,27.42
2023-01-31T11:30:50.690Z,26.30
2023-01-31T11:34:01.014Z,25.22
2023-01-31T11:37:15.284Z,29.39
2023-01-31T11:40:22.837Z,35.71
2023-01-31T11:43:30.455Z,39.16
2023-01-31T11:46:44.039Z,37.14
2023-01-31T11:49:50.614Z,41.21
2023-01-31T11:53:15.004Z,40.49
2023-01-31T11:56:25.848Z,32.94
2023-01-31T11:59:30.933Z,28.52
2023-01-31T12:02:41.194Z,32.54
2023-01-31T12:05:46.500Z,37.34
2023-01-31T12:08:55.597Z,38.60
2023-01-31T12:12:01.138Z,41.49
2023-01-31T12:15:13.805Z,42.19
2023-01-31T12:18:24.794Z,44.07
2023-01-31T12:21:53.735Z,44.86
2023-01-31T12:25:15.965Z,45.14
2023-01-31T12:28:36.236Z,43.77
2023-01-31T12:32:02.635Z,40.64
2023-01-31T12:35:21.222Z,40.86
2023-01-31T12:38:26.625Z,39.73
2023-01-31T12:41:35.998Z,39.77
2023-01-31T12:44:50.651Z,41.02
2023-01-31T12:48:30.192Z,43.19
2023-01-31T12:51:40.119Z,43.20
2023-01-31T12:55:20.406Z,39.03
2023-01-31T12:58:43.355Z,38.79
2023-01-31T13:01:52.772Z,36.41
2023-01-31T13:05:31.291Z,37.25
2023-01-31T13:08:35.835Z,36.43
2023-01-31T13:11:44.396Z,34.63
2023-01-31T13:15:04.428Z,36.68
2023-01-31T13:18:10.645Z,33.47
2023-01-31T13:21:23.598Z,34.52
2023-01-31T13:24:36.355Z,33.50
2023-01-31T13:27:42.181Z,30.20
2023-01-31T13:31:03.975Z,26.70
2023-01-31T13:34:18.640Z,26.45
2023-01-31T13:37:22.150Z,25.58
2023-01-31T13:40:31.909Z,25.12
2023-01-31T13:43:34.523Z,24.62
2023-01-31T13:46:48.733Z,25.49
2023-01-31T13:50:18.525Z,25.44
2023-01-31T13:53:27.061Z,24.73
2023-01-31T13:56:36.379Z,23.19
2023-01-31T13:59:39.288Z,26.21
2023-01-31T14:03:07.049Z,28.75
2023-01-31T14:06:09.599Z,33.21
2023-01-31T14:09:24.751Z,31.43
2023-01-31T14:12:32.807Z,33.72
2023-01-31T14:15:50.245Z,37.13
2023-01-31T14:18:53.113Z,40.09
2023-01-31T14:22:01.960Z,41.65
2023-01-31T14:25:12.095Z,42.67
2023-01-31T14:28:15.056Z,44.26
2023-01-31T14:31:19.694Z,45.07
2023-01-31T14:34:29.644Z,45.78
2023-01-31T14:37:32.115Z,46.99
2023-01-31T14:40:40.317Z,50.39
2023-01-31T14:44:21.560Z,52.66
2023-01-31T14:48:01.691Z,53.17
2023-01-31T14:51:17.254Z,53.82
2023-01-31T14:54:47.178Z,55.19
2023-01-31T14:57:56.239Z,54.56
2023-01-31T15:01:02.264Z,56.08
2023-01-31T15:04:05.956Z,55.86
2023-01-31T15:07:16.709Z,56.56
2023-01-31T15:11:02.111Z,57.23
2023-01-31T15:14:33.849Z,57.14
2023-01-31T15:17:40.647Z,57.09
2023-01-31T15:20:47.366Z,57.28
2023-01-31T15:23:51.148Z,57.26
2023-01-31T15:26:55.187Z,57.27
2023-01-31T15:30:17.640Z,58.15
2023-01-31T15:33:29.207Z,59.28
2023-01-31T15:37:04.545Z,59.73
2023-01-31T15:40:21.153Z,61.27
2023-01-31T15:43:25.092Z,63.80
2023-01-31T15:46:30.865Z,64.62
2023-01-31T15:49:41.106Z,64.95
2023-01-31T15:52:43.694Z,64.66
2023-01-31T15:55:48.149Z,64.47
2023-01-31T15:58:54.303Z,64.76
2023-01-31T16:02:00.999Z,65.22
2023-01-31T16:05:07.710Z,65.32
2023-01-31T16:08:26.715Z,64.97
2023-01-31T16:11:33.700Z,64.97
2023-01-31T16:14:37.543Z,66.13
2023-01-31T16:17:40.121Z,65.53
2023-01-31T16:20:56.155Z,65.08
2023-01-31T16:24:15.389Z,65.18
2023-01-31T16:27:18.196Z,64.93
2023-01-31T16:30:20.990Z,64.42
2023-01-31T16:33:24.311Z,64.23
2023-01-31T16:36:34.537Z,63.95
2023-01-31T16:39:40.910Z,63.61
2023-01-31T16:42:43.543Z,63.65
2023-01-31T16:45:52.912Z,63.67
2023-01-31T16:49:04.850Z,65.74
2023-01-31T16:52:26.211Z,66.48
2023-01-31T16:55:29.669Z,67.07
2023-01-31T16:58:57.752Z,66.81
2023-01-31T17:02:24.049Z,66.80
2023-01-31T17:05:29.098Z,66.41
2023-01-31T17:08:36.624Z,66.28
2023-01-31T17:11:43.133Z,66.03
2023-01-31T17:14:46.424Z,65.89
2023-01-31T17:17:49.443Z,65.85
2023-01-31T17:20:53.310Z,65.68
2023-01-31T17:23:55.981Z,65.05
2023-01-31T17:27:03.613Z,65.04
2023-01-31T17:30:06.781Z,64.54
2023-01-31T17:33:13.243Z,64.36
2023-01-31T17:36:17.351Z,64.31
2023-01-31T17:39:21.291Z,64.05
2023-01-31T17:42:24.728Z,63.30
2023-01-31T17:45:27.939Z,59.92
2023-01-31T17:48:30.456Z,60.72
2023-01-31T17:51:33.423Z,61.38
2023-01-31T17:54:36.402Z,60.44
2023-01-31T17:57:39.404Z,60.92
2023-01-31T18:00:41.923Z,61.35
2023-01-31T18:03:45.155Z,61.33
2023-01-31T18:06:47.689Z,61.81
2023-01-31T18:09:51.107Z,61.67
2023-01-31T18:12:54.247Z,61.78
2023-01-31T18:16:07.623Z,61.35
2023-01-31T18:19:11.800Z,60.73
2023-01-31T18:22:14.673Z,60.27
2023-01-31T18:25:17.549Z,60.49
2023-01-31T18:28:20.279Z,60.25
2023-01-31T18:31:23.786Z,59.89
2023-01-31T18:34:26.399Z,59.46
2023-01-31T18:37:29.197Z,59.14
2023-01-31T18:40:33.671Z,59.32
2023-01-31T18:43:36.709Z,59.68
2023-01-31T18:46:39.458Z,60.13
2023-01-31T18:49:42.405Z,59.62
2023-01-31T18:52:44.965Z,58.84
2023-01-31T18:55:48.121Z,58.46
2023-01-31T18:58:55.340Z,58.71
2023-01-31T19:01:58.188Z,57.91
2023-01-31T19:05:02.181Z,59.27
2023-01-31T19:08:05.431Z,59.89
2023-01-31T19:11:14.145Z,60.13
2023-01-31T19:14:16.815Z,60.01
2023-01-31T19:17:20.491Z,60.02
2023-01-31T19:20:23.743Z,60.48
2023-01-31T19:23:26.800Z,61.45
2023-01-31T19:26:31.285Z,61.85
2023-01-31T19:29:34.156Z,63.68
2023-01-31T19:32:36.964Z,65.88
2023-01-31T19:35:39.710Z,67.02
2023-01-31T19:38:43.974Z,67.52
2023-01-31T19:41:46.861Z,68.33
2023-01-31T19:44:49.654Z,69.34
2023-01-31T19:47:52.362Z,69.23
2023-01-31T19:50:56.208Z,69.43
2023-01-31T19:54:03.711Z,69.74
2023-01-31T19:57:06.404Z,70.35
2023-01-31T20:00:11.594Z,71.33
2023-01-31T20:03:14.815Z,71.07
2023-01-31T20:06:20.660Z,71.58
2023-01-31T20:09:23.605Z,72.17
2023-01-31T20:12:26.364Z,72.58
2023-01-31T20:15:30.231Z,72.85
2023-01-31T20:18:37.940Z,73.37
2023-01-31T20:21:40.341Z,74.74
2023-01-31T20:24:43.781Z,74.84
2023-01-31T20:27:46.619Z,75.41
2023-01-31T20:30:49.649Z,75.72
2023-01-31T20:33:54.840Z,76.25
2023-01-31T20:36:58.002Z,77.25
2023-01-31T20:40:01.128Z,76.94
2023-01-31T20:43:04.226Z,77.17
2023-01-31T20:46:09.787Z,77.56
2023-01-31T20:49:13.038Z,77.45
2023-01-31T20:52:16.765Z,77.94
2023-01-31T20:55:19.521Z,77.79
2023-01-31T20:58:24.404Z,77.76
2023-01-31T21:01:27.168Z,78.91
2023-01-31T21:04:29.848Z,79.23
2023-01-31T21:07:32.732Z,79.04
2023-01-31T21:10:35.553Z,79.15
2023-01-31T21:13:38.836Z,78.89
2023-01-31T21:16:41.512Z,79.29
2023-01-31T21:19:44.269Z,78.66
2023-01-31T21:22:46.779Z,78.84
2023-01-31T21:25:49.540Z,79.15
2023-01-31T21:28:52.035Z,78.58
2023-01-31T21:31:54.780Z,78.67
2023-01-31T21:34:57.467Z,78.49
2023-01-31T21:37:59.986Z,78.06
2023-01-31T21:41:20.625Z,77.78
2023-01-31T21:44:23.038Z,77.81
2023-01-31T21:47:25.936Z,77.66
2023-01-31T21:50:28.427Z,77.48
2023-01-31T21:53:31.029Z,78.06
2023-01-31T21:56:33.487Z,78.13
2023-01-31T21:59:36.541Z,77.89
2023-01-31T22:02:39.067Z,77.96
2023-01-31T22:05:41.472Z,77.63
2023-01-31T22:08:44.733Z,76.48
2023-01-31T22:11:48.011Z,76.48
2023-01-31T22:14:50.454Z,76.67
2023-01-31T22:17:53.029Z,76.74
2023-01-31T22:21:09.002Z,76.86
2023-01-31T22:24:11.670Z,76.87
2023-01-31T22:27:14.268Z,76.78
2023-01-31T22:30:17.049Z,76.48
2023-01-31T22:33:19.450Z,75.98
2023-01-31T22:36:24.562Z,75.68
2023-01-31T22:39:27.666Z,75.81
2023-01-31T22:42:30.254Z,75.53
2023-01-31T22:45:32.750Z,75.64
2023-01-31T22:48:36.078Z,75.48
2023-01-31T22:51:38.571Z,74.64
2023-01-31T22:54:41.223Z,74.30
2023-01-31T22:57:43.671Z,73.69
2023-01-31T23:00:47.196Z,73.05
2023-01-31T23:03:50.078Z,72.60
2023-01-31T23:06:52.521Z,72.21
2023-01-31T23:09:55.091Z,72.50
2023-01-31T23:12:57.529Z,72.23
2023-01-31T23:16:00.204Z,71.88
2023-01-31T23:19:02.778Z,71.70
2023-01-31T23:22:05.298Z,71.15
2023-01-31T23:25:11.387Z,70.69
2023-01-31T23:28:13.901Z,70.51
2023-01-31T23:31:16.622Z,69.73
2023-01-31T23:34:19.097Z,69.76
2023-01-31T23:37:22.420Z,69.39
2023-01-31T23:40:25.142Z,68.77
2023-01-31T23:43:27.981Z,67.95
2023-01-31T23:46:30.559Z,68.25
2023-01-31T23:49:33.206Z,68.42
2023-01-31T23:52:37.043Z,67.69
2023-01-31T23:55:39.527Z,68.63
2023-01-31T23:58:41.985Z,68.10
